createdAt,value
2023-02-27T00:00:27.627Z,6.37
2023-02-27T00:03:30.724Z,6.87
2023-02-27T00:06:34.327Z,7.10
2023-02-27T00:09:38.113Z,8.27
2023-02-27T00:12:43.562Z,6.00
2023-02-27T00:15:47.433Z,6.93
2023-02-27T00:18:50.422Z,6.40
2023-02-27T00:21:53.916Z,8.43
2023-02-27T00:24:57.372Z,7.03
2023-02-27T00:28:02.042Z,5.93
2023-02-27T00:31:05.695Z,8.27
2023-02-27T00:34:09.202Z,8.27
2023-02-27T00:37:12.549Z,6.33
2023-02-27T00:40:16.145Z,7.70
2023-02-27T00:43:21.449Z,6.30
2023-02-27T00:46:26.277Z,6.50
2023-02-27T00:49:29.313Z,7.37
2023-02-27T00:52:33.663Z,6.47
2023-02-27T00:55:36.693Z,6.00
2023-02-27T00:58:41.448Z,7.13
2023-02-27T01:01:45.281Z,6.53
2023-02-27T01:04:48.314Z,7.00
2023-02-27T01:07:51.588Z,7.23
2023-02-27T01:10:56.423Z,6.93
2023-02-27T01:14:01.268Z,8.20
2023-02-27T01:17:04.502Z,5.80
2023-02-27T01:20:10.827Z,5.83
2023-02-27T01:23:13.909Z,7.07
2023-02-27T01:26:19.001Z,6.77
2023-02-27T01:29:23.451Z,7.33
2023-02-27T01:32:26.780Z,5.90
2023-02-27T01:35:29.805Z,7.83
2023-02-27T01:38:33.209Z,6.17
2023-02-27T01:41:36.865Z,8.10
2023-02-27T01:45:30.701Z,8.30
2023-02-27T01:48:38.458Z,6.23
2023-02-27T01:51:47.052Z,8.53
2023-02-27T01:54:50.283Z,7.93
2023-02-27T01:57:54.154Z,5.53
2023-02-27T02:00:57.856Z,7.43
2023-02-27T02:04:11.300Z,6.37
2023-02-27T02:07:18.786Z,6.93
2023-02-27T02:10:22.702Z,6.20
2023-02-27T02:13:25.916Z,6.33
2023-02-27T02:16:59.454Z,5.67
2023-02-27T02:20:45.583Z,5.40
2023-02-27T02:24:30.368Z,5.83
2023-02-27T02:27:50.232Z,6.23
2023-02-27T02:31:35.322Z,5.57
2023-02-27T02:35:16.216Z,6.53
2023-02-27T02:38:52.514Z,6.40
2023-02-27T02:42:05.143Z,5.87
2023-02-27T02:45:18.783Z,4.73
2023-02-27T02:48:28.167Z,5.37
2023-02-27T02:51:38.115Z,5.47
2023-02-27T02:54:47.975Z,10.63
2023-02-27T02:57:57.326Z,6.13
2023-02-27T03:01:05.400Z,7.23
2023-02-27T03:04:14.111Z,5.80
2023-02-27T03:07:23.537Z,6.53
2023-02-27T03:10:31.789Z,5.60
2023-02-27T03:13:38.931Z,7.50
2023-02-27T03:16:44.518Z,6.27
2023-02-27T03:19:57.556Z,6.53
2023-02-27T03:23:06.485Z,5.83
2023-02-27T03:26:13.317Z,5.43
2023-02-27T03:29:23.915Z,6.07
2023-02-27T03:32:33.787Z,5.40
2023-02-27T03:35:47.076Z,7.07
2023-02-27T03:38:56.819Z,5.60
2023-02-27T03:42:11.460Z,5.90
2023-02-27T03:45:41.388Z,4.90
2023-02-27T03:48:45.757Z,6.80
2023-02-27T03:51:49.356Z,5.20
2023-02-27T03:54:58.331Z,6.03
2023-02-27T03:58:03.090Z,6.37
2023-02-27T04:01:07.051Z,5.00
2023-02-27T04:04:14.858Z,4.60
2023-02-27T04:07:47.026Z,5.53
2023-02-27T04:11:13.446Z,5.70
2023-02-27T04:14:36.318Z,5.43
2023-02-27T04:17:49.802Z,5.63
2023-02-27T04:20:59.643Z,5.57
2023-02-27T04:24:14.423Z,6.30
2023-02-27T04:27:26.307Z,6.07
2023-02-27T04:30:44.104Z,5.63
2023-02-27T04:33:53.726Z,6.57
2023-02-27T04:37:02.568Z,9.30
2023-02-27T04:40:10.894Z,6.00
2023-02-27T04:43:16.571Z,5.53
2023-02-27T04:46:25.700Z,5.97
2023-02-27T04:49:34.283Z,5.33
2023-02-27T04:52:42.007Z,6.47
2023-02-27T04:55:49.009Z,6.77
2023-02-27T04:58:55.514Z,5.90
2023-02-27T05:02:03.772Z,5.67
2023-02-27T05:05:10.947Z,5.33
2023-02-27T05:08:22.783Z,6.23
2023-02-27T05:11:30.964Z,7.03
2023-02-27T05:14:38.055Z,8.40
2023-02-27T05:17:48.674Z,5.70
2023-02-27T05:20:57.652Z,7.17
2023-02-27T05:24:13.855Z,6.13
2023-02-27T05:27:31.493Z,6.50
2023-02-27T05:30:39.542Z,7.23
2023-02-27T05:33:52.019Z,6.67
2023-02-27T05:37:01.028Z,6.80
2023-02-27T05:40:08.501Z,8.60
2023-02-27T05:43:17.732Z,9.73
2023-02-27T05:46:25.911Z,6.87
2023-02-27T05:49:34.710Z,9.57
2023-02-27T05:52:38.996Z,6.60
2023-02-27T05:55:45.626Z,9.97
2023-02-27T05:58:55.739Z,8.43
2023-02-27T06:01:58.793Z,10.03
2023-02-27T06:05:03.477Z,7.77
2023-02-27T06:08:06.503Z,8.73
2023-02-27T06:11:09.871Z,6.47
2023-02-27T06:14:12.918Z,6.60
2023-02-27T06:17:16.354Z,7.13
2023-02-27T06:20:21.379Z,7.87
2023-02-27T06:23:24.635Z,8.40
2023-02-27T06:26:27.843Z,6.23
2023-02-27T06:29:31.770Z,8.83
2023-02-27T06:32:35.210Z,9.50
2023-02-27T06:35:40.251Z,9.03
2023-02-27T06:38:43.373Z,9.00
2023-02-27T06:41:46.581Z,7.43
2023-02-27T06:44:49.932Z,7.23
2023-02-27T06:47:52.928Z,7.23
2023-02-27T06:50:58.106Z,10.30
2023-02-27T06:54:01.110Z,7.47
2023-02-27T06:57:05.146Z,7.53
2023-02-27T07:00:11.776Z,7.97
2023-02-27T07:03:14.971Z,6.23
2023-02-27T07:06:19.331Z,9.10
2023-02-27T07:09:23.122Z,6.10
2023-02-27T07:12:26.212Z,11.17
2023-02-27T07:15:29.780Z,8.13
2023-02-27T07:18:32.805Z,9.00
2023-02-27T07:21:37.264Z,10.43
2023-02-27T07:24:40.214Z,7.93
2023-02-27T07:27:46.054Z,10.90
2023-02-27T07:30:49.173Z,11.73
2023-02-27T07:33:52.199Z,8.67
2023-02-27T07:36:56.507Z,7.33
2023-02-27T07:39:59.718Z,7.57
2023-02-27T07:43:02.749Z,9.63
2023-02-27T07:46:06.579Z,9.33
2023-02-27T07:49:10.598Z,8.27
2023-02-27T07:52:14.997Z,8.17
2023-02-27T07:55:18.159Z,7.97
2023-02-27T07:58:21.183Z,12.00
2023-02-27T08:01:24.375Z,13.53
2023-02-27T08:04:27.617Z,8.67
2023-02-27T08:07:32.004Z,15.50
2023-02-27T08:10:35.551Z,10.83
2023-02-27T08:17:01.557Z,10.10
2023-02-27T08:20:07.021Z,11.13
2023-02-27T08:23:11.935Z,10.07
2023-02-27T08:26:15.213Z,10.23
2023-02-27T08:29:18.435Z,11.50
2023-02-27T08:32:21.618Z,10.93
2023-02-27T08:35:25.472Z,12.33
2023-02-27T08:38:29.787Z,11.60
2023-02-27T08:41:33.243Z,12.37
2023-02-27T08:44:36.232Z,13.87
2023-02-27T08:47:39.321Z,9.07
2023-02-27T08:50:42.571Z,13.97
2023-02-27T08:53:46.863Z,11.57
2023-02-27T08:56:49.809Z,13.07
2023-02-27T08:59:52.823Z,9.13
2023-02-27T09:02:56.698Z,12.67
2023-02-27T09:05:59.895Z,11.90
2023-02-27T09:09:05.099Z,14.40
2023-02-27T09:12:08.323Z,12.13
2023-02-27T09:15:13.174Z,11.10
2023-02-27T09:18:16.287Z,11.53
2023-02-27T09:21:20.402Z,8.70
2023-02-27T09:24:24.758Z,14.93
2023-02-27T09:27:27.797Z,10.10
2023-02-27T09:30:30.991Z,14.40
2023-02-27T09:33:34.442Z,11.10
2023-02-27T09:36:37.537Z,8.57
2023-02-27T09:39:42.765Z,9.33
2023-02-27T09:42:48.673Z,10.20
2023-02-27T09:45:56.501Z,7.43
2023-02-27T09:49:03.814Z,11.63
2023-02-27T09:52:06.815Z,6.50
2023-02-27T09:55:21.326Z,9.27
2023-02-27T09:58:39.339Z,7.03
2023-02-27T10:01:49.435Z,6.37
2023-02-27T10:05:00.327Z,8.00
2023-02-27T10:08:11.443Z,7.17
2023-02-27T10:11:22.664Z,8.97
2023-02-27T10:14:38.832Z,7.73
2023-02-27T10:17:48.442Z,13.93
2023-02-27T10:20:57.264Z,12.33
2023-02-27T10:24:07.899Z,9.60
2023-02-27T10:27:19.083Z,6.23
2023-02-27T10:30:30.370Z,4.57
2023-02-27T10:33:38.417Z,5.93
2023-02-27T10:36:41.944Z,6.30
2023-02-27T10:39:49.953Z,5.50
2023-02-27T10:42:55.806Z,5.47
2023-02-27T10:46:02.919Z,6.10
2023-02-27T10:49:18.395Z,4.97
2023-02-27T10:52:22.081Z,4.00
2023-02-27T10:55:28.437Z,4.53
2023-02-27T10:58:36.322Z,3.73
2023-02-27T11:01:46.265Z,4.27
2023-02-27T11:04:53.857Z,8.93
2023-02-27T11:08:12.103Z,3.47
2023-02-27T11:11:15.095Z,4.43
2023-02-27T11:14:29.826Z,5.30
2023-02-27T11:17:36.812Z,6.63
2023-02-27T11:20:43.551Z,5.37
2023-02-27T11:23:58.133Z,3.83
2023-02-27T11:27:06.348Z,3.50
2023-02-27T11:30:25.877Z,3.30
2023-02-27T11:33:32.011Z,5.80
2023-02-27T11:36:45.446Z,4.90
2023-02-27T11:39:52.438Z,3.30
2023-02-27T11:42:59.530Z,3.10
2023-02-27T11:46:36.724Z,2.87
2023-02-27T11:49:39.936Z,4.80
2023-02-27T11:52:51.039Z,3.33
2023-02-27T11:55:59.527Z,4.10
2023-02-27T11:59:09.633Z,3.63
2023-02-27T12:02:23.599Z,3.03
2023-02-27T12:05:32.176Z,3.60
2023-02-27T12:08:42.739Z,3.97
2023-02-27T12:11:48.104Z,3.00
2023-02-27T12:15:01.963Z,3.83
2023-02-27T12:18:16.342Z,3.60
2023-02-27T12:21:23.752Z,3.33
2023-02-27T12:24:32.459Z,3.60
2023-02-27T12:27:46.198Z,4.63
2023-02-27T12:31:01.945Z,4.23
2023-02-27T12:34:18.614Z,3.10
2023-02-27T12:37:25.335Z,3.20
2023-02-27T12:40:38.098Z,5.13
2023-02-27T12:43:47.142Z,3.57
2023-02-27T12:47:03.355Z,4.53
2023-02-27T12:50:13.771Z,3.63
2023-02-27T12:53:33.058Z,3.53
2023-02-27T12:56:51.335Z,4.03
2023-02-27T13:00:08.345Z,3.30
2023-02-27T13:03:17.337Z,3.93
2023-02-27T13:06:30.396Z,3.37
2023-02-27T13:09:42.344Z,3.97
2023-02-27T13:12:52.098Z,3.10
2023-02-27T13:16:00.757Z,3.60
2023-02-27T13:19:10.850Z,3.20
2023-02-27T13:22:24.892Z,4.67
2023-02-27T13:25:29.597Z,3.20
2023-02-27T13:28:33.994Z,5.33
2023-02-27T13:31:45.095Z,4.70
2023-02-27T13:34:52.380Z,3.17
2023-02-27T13:38:01.582Z,3.53
2023-02-27T13:41:40.198Z,3.40
2023-02-27T13:44:43.768Z,3.53
2023-02-27T13:47:50.135Z,6.63
2023-02-27T13:50:53.738Z,3.47
2023-02-27T13:54:19.467Z,5.20
2023-02-27T13:57:27.625Z,3.13
2023-02-27T14:00:33.490Z,3.50
2023-02-27T14:03:36.604Z,2.97
2023-02-27T14:06:45.722Z,3.10
2023-02-27T14:09:54.872Z,3.97
2023-02-27T14:12:58.960Z,3.27
2023-02-27T14:16:02.096Z,3.43
2023-02-27T14:19:50.376Z,3.40
2023-02-27T14:23:20.544Z,4.80
2023-02-27T14:26:26.538Z,3.37
2023-02-27T14:29:33.630Z,3.30
2023-02-27T14:32:38.780Z,3.20
2023-02-27T14:35:48.166Z,3.27
2023-02-27T14:38:55.684Z,3.20
2023-02-27T14:42:22.918Z,3.20
2023-02-27T14:45:26.065Z,5.07
2023-02-27T14:48:30.764Z,3.27
2023-02-27T14:51:35.978Z,4.37
2023-02-27T14:54:39.075Z,4.03
2023-02-27T14:57:59.628Z,3.40
2023-02-27T15:01:07.713Z,3.33
2023-02-27T15:04:20.418Z,3.90
2023-02-27T15:07:26.858Z,3.97
2023-02-27T15:10:31.812Z,3.67
2023-02-27T15:13:39.980Z,4.20
2023-02-27T15:16:43.344Z,4.87
2023-02-27T15:19:48.881Z,4.97
2023-02-27T15:22:52.260Z,3.90
2023-02-27T15:25:57.889Z,4.43
2023-02-27T15:29:03.900Z,3.33
2023-02-27T15:32:08.694Z,3.23
2023-02-27T15:35:19.510Z,3.87
2023-02-27T15:38:27.054Z,3.40
2023-02-27T15:41:30.376Z,4.20
2023-02-27T15:44:41.654Z,5.23
2023-02-27T15:47:45.012Z,4.30
2023-02-27T15:50:50.784Z,3.50
2023-02-27T15:53:57.217Z,3.77
2023-02-27T15:57:00.805Z,3.60
2023-02-27T16:00:08.977Z,3.30
2023-02-27T16:03:21.036Z,3.80
2023-02-27T16:06:28.763Z,3.50
2023-02-27T16:09:34.906Z,5.23
2023-02-27T16:12:39.751Z,3.97
2023-02-27T16:15:44.592Z,3.97
2023-02-27T16:18:50.063Z,3.50
2023-02-27T16:22:06.569Z,4.80
2023-02-27T16:25:11.910Z,3.40
2023-02-27T16:28:15.719Z,3.97
2023-02-27T16:31:26.525Z,3.90
2023-02-27T16:34:44.539Z,4.07
2023-02-27T16:37:50.264Z,4.97
2023-02-27T16:40:53.358Z,4.73
2023-02-27T16:43:56.526Z,5.00
2023-02-27T16:47:02.138Z,6.47
2023-02-27T16:50:05.897Z,9.93
2023-02-27T16:53:09.876Z,7.37
2023-02-27T16:56:13.504Z,10.00
2023-02-27T16:59:29.683Z,5.33
2023-02-27T17:02:34.686Z,5.70
2023-02-27T17:05:37.900Z,8.53
2023-02-27T17:08:43.096Z,4.67
2023-02-27T17:11:46.298Z,10.00
2023-02-27T17:14:49.436Z,6.07
2023-02-27T17:17:54.366Z,12.40
2023-02-27T17:21:00.622Z,6.47
2023-02-27T17:24:06.109Z,7.23
2023-02-27T17:27:09.599Z,5.27
2023-02-27T17:30:15.202Z,5.20
2023-02-27T17:33:20.297Z,4.90
2023-02-27T17:36:24.576Z,8.40
2023-02-27T17:39:27.768Z,4.60
2023-02-27T17:42:30.959Z,11.10
2023-02-27T17:45:34.097Z,4.40
2023-02-27T17:48:39.685Z,7.13
2023-02-27T17:51:43.361Z,4.17
2023-02-27T17:54:46.336Z,3.77
2023-02-27T17:57:49.462Z,5.90
2023-02-27T18:00:52.624Z,4.50
2023-02-27T18:03:57.584Z,5.03
2023-02-27T18:07:00.690Z,4.63
2023-02-27T18:10:05.548Z,4.93
2023-02-27T18:13:08.539Z,9.50
2023-02-27T18:16:12.657Z,5.50
2023-02-27T18:19:18.323Z,9.30
2023-02-27T18:22:22.825Z,5.90
2023-02-27T18:25:26.228Z,6.83
2023-02-27T18:28:30.217Z,6.10
2023-02-27T18:31:37.060Z,5.70
2023-02-27T18:34:46.347Z,7.97
2023-02-27T18:37:49.398Z,5.67
2023-02-27T18:40:52.925Z,5.20
2023-02-27T18:43:56.281Z,8.77
2023-02-27T18:46:59.863Z,6.53
2023-02-27T18:50:04.364Z,12.53
2023-02-27T18:53:07.503Z,6.13
2023-02-27T18:56:12.079Z,8.60
2023-02-27T18:59:15.696Z,7.10
2023-02-27T19:02:20.617Z,10.17
2023-02-27T19:05:25.502Z,7.70
2023-02-27T19:08:29.445Z,5.40
2023-02-27T19:11:33.961Z,8.60
2023-02-27T19:14:37.127Z,5.77
2023-02-27T19:17:40.305Z,6.63
2023-02-27T19:20:44.816Z,7.40
2023-02-27T19:23:47.820Z,10.67
2023-02-27T19:26:53.365Z,8.40
2023-02-27T19:29:56.661Z,6.23
2023-02-27T19:33:00.108Z,7.33
2023-02-27T19:36:08.460Z,11.10
2023-02-27T19:39:12.466Z,9.03
2023-02-27T19:42:15.494Z,7.60
2023-02-27T19:45:19.015Z,11.87
2023-02-27T19:48:22.084Z,7.20
2023-02-27T19:51:26.828Z,7.97
2023-02-27T19:54:30.703Z,9.40
2023-02-27T19:57:35.572Z,7.83
2023-02-27T20:00:38.675Z,11.27
2023-02-27T20:03:43.830Z,6.57
2023-02-27T20:06:53.672Z,6.80
2023-02-27T20:09:57.213Z,8.33
2023-02-27T20:13:00.236Z,7.17
2023-02-27T20:16:06.044Z,10.27
2023-02-27T20:19:14.515Z,6.70
2023-02-27T20:22:18.841Z,9.43
2023-02-27T20:25:22.541Z,6.80
2023-02-27T20:28:28.250Z,8.37
2023-02-27T20:31:35.697Z,7.23
2023-02-27T20:34:38.984Z,6.17
2023-02-27T20:37:43.315Z,8.10
2023-02-27T20:40:46.482Z,9.70
2023-02-27T20:43:50.518Z,7.13
2023-02-27T20:46:54.105Z,6.43
2023-02-27T20:49:57.076Z,7.87
2023-02-27T20:53:01.381Z,6.83
2023-02-27T20:56:05.588Z,7.13
2023-02-27T20:59:11.038Z,8.80
2023-02-27T21:02:14.027Z,8.13
2023-02-27T21:05:17.516Z,9.23
2023-02-27T21:08:22.693Z,9.03
2023-02-27T21:11:29.220Z,9.00
2023-02-27T21:14:32.768Z,6.83
2023-02-27T21:17:35.750Z,6.60
2023-02-27T21:20:40.971Z,8.07
2023-02-27T21:23:45.602Z,8.53
2023-02-27T21:26:49.296Z,7.27
2023-02-27T21:29:52.383Z,6.53
2023-02-27T21:32:55.450Z,7.30
2023-02-27T21:35:58.526Z,6.40
2023-02-27T21:39:06.706Z,7.47
2023-02-27T21:42:09.701Z,8.60
2023-02-27T21:45:12.973Z,7.70
2023-02-27T21:48:16.137Z,6.67
2023-02-27T21:51:33.044Z,7.00
2023-02-27T21:54:42.985Z,6.63
2023-02-27T21:57:46.410Z,8.90
2023-02-27T22:00:50.364Z,7.30
2023-02-27T22:03:54.967Z,6.37
2023-02-27T22:06:57.963Z,7.57
2023-02-27T22:10:02.693Z,7.93
2023-02-27T22:13:05.665Z,8.20
2023-02-27T22:16:10.886Z,9.37
2023-02-27T22:19:19.700Z,8.00
2023-02-27T22:22:22.950Z,7.47
2023-02-27T22:25:27.242Z,6.80
2023-02-27T22:28:32.067Z,6.70
2023-02-27T22:31:37.867Z,9.17
2023-02-27T22:34:41.118Z,7.87
2023-02-27T22:37:45.005Z,7.90
2023-02-27T22:40:49.285Z,6.87
2023-02-27T22:43:52.803Z,5.83
2023-02-27T22:46:57.131Z,6.27
2023-02-27T22:50:00.194Z,6.30
2023-02-27T22:53:03.154Z,6.57
2023-02-27T22:56:11.090Z,6.17
2023-02-27T22:59:15.563Z,6.70
2023-02-27T23:02:18.596Z,6.97
2023-02-27T23:05:21.750Z,7.50
2023-02-27T23:08:24.821Z,5.83
2023-02-27T23:11:30.044Z,6.20
2023-02-27T23:14:33.606Z,7.93
2023-02-27T23:17:41.452Z,7.20
2023-02-27T23:20:52.396Z,11.13
2023-02-27T23:23:57.597Z,7.23
2023-02-27T23:27:19.600Z,6.83
2023-02-27T23:30:28.547Z,7.60
2023-02-27T23:33:32.299Z,6.43
2023-02-27T23:36:36.859Z,6.33
2023-02-27T23:39:39.875Z,6.73
2023-02-27T23:42:44.329Z,6.60
2023-02-27T23:45:47.504Z,9.10
2023-02-27T23:48:51.128Z,6.30
2023-02-27T23:51:54.464Z,5.83
2023-02-27T23:54:57.495Z,7.63
2023-02-27T23:58:05.283Z,6.57
